sensor_id;sensor_type;location;lat;lon;timestamp;P1;durP1;ratioP1;P2;durP2;ratioP2
10299;SDS011;5195;48.562;9.192;2024-01-15T00:00:18;16.57;;;10.13;;
10299;SDS011;5195;48.562;9.192;2024-01-15T00:02:54;16.63;;;9.10;;
10299;SDS011;5195;48.562;9.192;2024-01-15T00:05:29;15.37;;;9.53;;
10299;SDS011;5195;48.562;9.192;2024-01-15T00:08:05;16.40;;;12.70;;
10299;SDS011;5195;48.562;9.192;2024-01-15T00:10:41;16.20;;;12.83;;
10299;SDS011;5195;48.562;9.192;2024-01-15T00:13:16;15.97;;;10.93;;
10299;SDS011;5195;48.562;9.192;2024-01-15T00:15:52;13.10;;;9.40;;
10299;SDS011;5195;48.562;9.192;2024-01-15T00:18:29;14.77;;;9.40;;
10299;SDS011;5195;48.562;9.192;2024-01-15T00:21:05;13.17;;;8.50;;
10299;SDS011;5195;48.562;9.192;2024-01-15T00:23:44;17.33;;;13.25;;
10299;SDS011;5195;48.562;9.192;2024-01-15T00:26:20;15.40;;;10.87;;
10299;SDS011;5195;48.562;9.192;2024-01-15T00:28:56;14.90;;;9.90;;
10299;SDS011;5195;48.562;9.192;2024-01-15T00:31:31;19.27;;;14.03;;
10299;SDS011;5195;48.562;9.192;2024-01-15T00:34:07;15.30;;;10.70;;
10299;SDS011;5195;48.562;9.192;2024-01-15T00:36:42;15.03;;;9.90;;
10299;SDS011;5195;48.562;9.192;2024-01-15T00:39:18;17.20;;;13.27;;
10299;SDS011;5195;48.562;9.192;2024-01-15T00:41:54;17.63;;;11.63;;
10299;SDS011;5195;48.562;9.192;2024-01-15T00:44:29;17.62;;;13.88;;
10299;SDS011;5195;48.562;9.192;2024-01-15T00:47:05;17.43;;;13.83;;
10299;SDS011;5195;48.562;9.192;2024-01-15T00:49:40;17.67;;;14.27;;
10299;SDS011;5195;48.562;9.192;2024-01-15T00:52:16;17.67;;;14.30;;
10299;SDS011;5195;48.562;9.192;2024-01-15T00:54:52;17.67;;;14.27;;
10299;SDS011;5195;48.562;9.192;2024-01-15T00:57:27;15.87;;;11.23;;
10299;SDS011;5195;48.562;9.192;2024-01-15T01:00:03;17.73;;;14.13;;
10299;SDS011;5195;48.562;9.192;2024-01-15T01:02:39;18.97;;;14.90;;
10299;SDS011;5195;48.562;9.192;2024-01-15T01:05:14;14.97;;;11.70;;
10299;SDS011;5195;48.562;9.192;2024-01-15T01:07:51;14.60;;;9.77;;
10299;SDS011;5195;48.562;9.192;2024-01-15T01:10:27;17.15;;;14.00;;
10299;SDS011;5195;48.562;9.192;2024-01-15T01:13:02;16.13;;;10.87;;
10299;SDS011;5195;48.562;9.192;2024-01-15T01:15:37;16.40;;;10.93;;
10299;SDS011;5195;48.562;9.192;2024-01-15T01:18:13;16.57;;;9.57;;
10299;SDS011;5195;48.562;9.192;2024-01-15T01:20:49;18.57;;;13.70;;
10299;SDS011;5195;48.562;9.192;2024-01-15T01:23:24;17.70;;;13.80;;
10299;SDS011;5195;48.562;9.192;2024-01-15T01:26:00;17.77;;;11.33;;
10299;SDS011;5195;48.562;9.192;2024-01-15T01:28:35;16.80;;;13.13;;
10299;SDS011;5195;48.562;9.192;2024-01-15T01:31:11;16.20;;;10.27;;
10299;SDS011;5195;48.562;9.192;2024-01-15T01:33:46;14.77;;;9.90;;
10299;SDS011;5195;48.562;9.192;2024-01-15T01:36:22;14.70;;;10.10;;
10299;SDS011;5195;48.562;9.192;2024-01-15T01:38:58;17.77;;;12.80;;
10299;SDS011;5195;48.562;9.192;2024-01-15T01:41:33;14.77;;;10.13;;
10299;SDS011;5195;48.562;9.192;2024-01-15T01:44:09;13.77;;;9.37;;
10299;SDS011;5195;48.562;9.192;2024-01-15T01:46:44;16.13;;;12.67;;
10299;SDS011;5195;48.562;9.192;2024-01-15T01:49:20;12.43;;;9.43;;
10299;SDS011;5195;48.562;9.192;2024-01-15T01:51:56;13.33;;;9.60;;
10299;SDS011;5195;48.562;9.192;2024-01-15T01:54:31;15.33;;;9.63;;
10299;SDS011;5195;48.562;9.192;2024-01-15T01:57:07;13.87;;;9.47;;
10299;SDS011;5195;48.562;9.192;2024-01-15T01:59:43;17.02;;;12.48;;
10299;SDS011;5195;48.562;9.192;2024-01-15T02:02:19;17.27;;;12.87;;
10299;SDS011;5195;48.562;9.192;2024-01-15T02:04:55;13.23;;;9.83;;
10299;SDS011;5195;48.562;9.192;2024-01-15T02:07:31;13.43;;;9.07;;
10299;SDS011;5195;48.562;9.192;2024-01-15T02:10:08;16.63;;;13.00;;
10299;SDS011;5195;48.562;9.192;2024-01-15T02:12:44;15.93;;;12.73;;
10299;SDS011;5195;48.562;9.192;2024-01-15T02:15:19;14.93;;;12.13;;
10299;SDS011;5195;48.562;9.192;2024-01-15T02:18:03;15.30;;;10.07;;
10299;SDS011;5195;48.562;9.192;2024-01-15T02:20:37;16.95;;;12.60;;
10299;SDS011;5195;48.562;9.192;2024-01-15T02:23:14;14.73;;;11.90;;
10299;SDS011;5195;48.562;9.192;2024-01-15T02:25:49;17.10;;;9.87;;
10299;SDS011;5195;48.562;9.192;2024-01-15T02:28:25;13.83;;;8.63;;
10299;SDS011;5195;48.562;9.192;2024-01-15T02:31:01;15.13;;;11.97;;
10299;SDS011;5195;48.562;9.192;2024-01-15T02:33:36;16.10;;;12.43;;
10299;SDS011;5195;48.562;9.192;2024-01-15T02:36:12;14.20;;;10.17;;
10299;SDS011;5195;48.562;9.192;2024-01-15T02:38:47;14.50;;;9.47;;
10299;SDS011;5195;48.562;9.192;2024-01-15T02:41:23;15.70;;;12.00;;
10299;SDS011;5195;48.562;9.192;2024-01-15T02:43:58;14.87;;;9.50;;
10299;SDS011;5195;48.562;9.192;2024-01-15T02:46:34;11.30;;;8.23;;
10299;SDS011;5195;48.562;9.192;2024-01-15T02:49:10;15.93;;;12.37;;
10299;SDS011;5195;48.562;9.192;2024-01-15T02:51:45;14.03;;;8.10;;
10299;SDS011;5195;48.562;9.192;2024-01-15T02:54:21;14.10;;;8.73;;
10299;SDS011;5195;48.562;9.192;2024-01-15T02:56:57;16.42;;;11.80;;
10299;SDS011;5195;48.562;9.192;2024-01-15T02:59:33;13.37;;;8.93;;
10299;SDS011;5195;48.562;9.192;2024-01-15T03:02:08;14.87;;;12.37;;
10299;SDS011;5195;48.562;9.192;2024-01-15T03:04:44;16.97;;;12.57;;
10299;SDS011;5195;48.562;9.192;2024-01-15T03:07:19;13.37;;;9.20;;
10299;SDS011;5195;48.562;9.192;2024-01-15T03:09:56;14.80;;;11.53;;
10299;SDS011;5195;48.562;9.192;2024-01-15T03:12:32;13.03;;;9.10;;
10299;SDS011;5195;48.562;9.192;2024-01-15T03:15:08;15.90;;;12.27;;
10299;SDS011;5195;48.562;9.192;2024-01-15T03:17:43;12.60;;;9.13;;
10299;SDS011;5195;48.562;9.192;2024-01-15T03:20:19;15.97;;;12.07;;
10299;SDS011;5195;48.562;9.192;2024-01-15T03:22:55;13.83;;;8.53;;
10299;SDS011;5195;48.562;9.192;2024-01-15T03:25:31;12.30;;;8.20;;
10299;SDS011;5195;48.562;9.192;2024-01-15T03:28:07;9.87;;;7.17;;
10299;SDS011;5195;48.562;9.192;2024-01-15T03:30:42;14.70;;;11.30;;
10299;SDS011;5195;48.562;9.192;2024-01-15T03:33:18;15.40;;;11.70;;
10299;SDS011;5195;48.562;9.192;2024-01-15T03:35:53;11.50;;;8.67;;
10299;SDS011;5195;48.562;9.192;2024-01-15T03:38:30;14.63;;;11.17;;
10299;SDS011;5195;48.562;9.192;2024-01-15T03:41:05;13.43;;;8.37;;
10299;SDS011;5195;48.562;9.192;2024-01-15T03:43:41;13.50;;;8.10;;
10299;SDS011;5195;48.562;9.192;2024-01-15T03:46:17;12.83;;;10.43;;
10299;SDS011;5195;48.562;9.192;2024-01-15T03:48:53;13.67;;;11.27;;
10299;SDS011;5195;48.562;9.192;2024-01-15T03:51:28;13.40;;;9.00;;
10299;SDS011;5195;48.562;9.192;2024-01-15T03:54:04;13.70;;;8.43;;
10299;SDS011;5195;48.562;9.192;2024-01-15T03:56:39;11.93;;;8.27;;
10299;SDS011;5195;48.562;9.192;2024-01-15T03:59:16;13.87;;;7.90;;
10299;SDS011;5195;48.562;9.192;2024-01-15T04:01:52;10.90;;;7.10;;
10299;SDS011;5195;48.562;9.192;2024-01-15T04:04:28;15.73;;;11.83;;
10299;SDS011;5195;48.562;9.192;2024-01-15T04:07:03;16.10;;;11.80;;
10299;SDS011;5195;48.562;9.192;2024-01-15T04:09:40;13.20;;;9.60;;
10299;SDS011;5195;48.562;9.192;2024-01-15T04:12:15;15.47;;;11.73;;
10299;SDS011;5195;48.562;9.192;2024-01-15T04:14:51;15.60;;;9.23;;
10299;SDS011;5195;48.562;9.192;2024-01-15T04:17:28;17.10;;;12.17;;
10299;SDS011;5195;48.562;9.192;2024-01-15T04:20:04;13.80;;;8.73;;
10299;SDS011;5195;48.562;9.192;2024-01-15T04:22:39;12.27;;;8.13;;
10299;SDS011;5195;48.562;9.192;2024-01-15T04:25:15;16.13;;;9.33;;
10299;SDS011;5195;48.562;9.192;2024-01-15T04:27:50;11.73;;;7.73;;
10299;SDS011;5195;48.562;9.192;2024-01-15T04:30:27;17.57;;;12.43;;
10299;SDS011;5195;48.562;9.192;2024-01-15T04:33:02;18.97;;;13.20;;
10299;SDS011;5195;48.562;9.192;2024-01-15T04:35:38;13.40;;;9.57;;
10299;SDS011;5195;48.562;9.192;2024-01-15T04:38:14;12.53;;;8.43;;
10299;SDS011;5195;48.562;9.192;2024-01-15T04:40:50;15.33;;;8.90;;
10299;SDS011;5195;48.562;9.192;2024-01-15T04:43:25;14.23;;;8.40;;
10299;SDS011;5195;48.562;9.192;2024-01-15T04:46:02;15.60;;;12.20;;
10299;SDS011;5195;48.562;9.192;2024-01-15T04:48:38;18.87;;;9.50;;
10299;SDS011;5195;48.562;9.192;2024-01-15T04:51:13;18.40;;;13.30;;
10299;SDS011;5195;48.562;9.192;2024-01-15T04:53:49;18.10;;;10.93;;
10299;SDS011;5195;48.562;9.192;2024-01-15T04:56:24;17.47;;;12.93;;
10299;SDS011;5195;48.562;9.192;2024-01-15T04:59:01;13.20;;;9.47;;
10299;SDS011;5195;48.562;9.192;2024-01-15T05:01:36;13.53;;;8.80;;
10299;SDS011;5195;48.562;9.192;2024-01-15T05:04:13;15.70;;;9.20;;
10299;SDS011;5195;48.562;9.192;2024-01-15T05:06:48;14.80;;;8.40;;
10299;SDS011;5195;48.562;9.192;2024-01-15T05:09:24;13.03;;;9.10;;
10299;SDS011;5195;48.562;9.192;2024-01-15T05:11:59;17.67;;;12.83;;
10299;SDS011;5195;48.562;9.192;2024-01-15T05:14:35;18.10;;;10.30;;
10299;SDS011;5195;48.562;9.192;2024-01-15T05:17:11;15.70;;;10.00;;
10299;SDS011;5195;48.562;9.192;2024-01-15T05:19:47;12.83;;;8.63;;
10299;SDS011;5195;48.562;9.192;2024-01-15T05:22:22;14.10;;;8.73;;
10299;SDS011;5195;48.562;9.192;2024-01-15T05:24:59;12.83;;;8.30;;
10299;SDS011;5195;48.562;9.192;2024-01-15T05:27:34;12.30;;;8.40;;
10299;SDS011;5195;48.562;9.192;2024-01-15T05:30:12;13.10;;;8.40;;
10299;SDS011;5195;48.562;9.192;2024-01-15T05:32:48;16.70;;;12.00;;
10299;SDS011;5195;48.562;9.192;2024-01-15T05:35:24;14.93;;;9.60;;
10299;SDS011;5195;48.562;9.192;2024-01-15T05:37:59;12.90;;;9.00;;
10299;SDS011;5195;48.562;9.192;2024-01-15T05:40:35;11.93;;;8.60;;
10299;SDS011;5195;48.562;9.192;2024-01-15T05:43:10;15.10;;;8.23;;
10299;SDS011;5195;48.562;9.192;2024-01-15T05:45:46;17.43;;;9.50;;
10299;SDS011;5195;48.562;9.192;2024-01-15T05:48:23;15.03;;;11.27;;
10299;SDS011;5195;48.562;9.192;2024-01-15T05:50:59;14.93;;;12.33;;
10299;SDS011;5195;48.562;9.192;2024-01-15T05:53:35;15.30;;;12.87;;
10299;SDS011;5195;48.562;9.192;2024-01-15T05:56:10;15.27;;;9.60;;
10299;SDS011;5195;48.562;9.192;2024-01-15T05:58:46;15.20;;;9.33;;
10299;SDS011;5195;48.562;9.192;2024-01-15T06:01:22;15.57;;;12.47;;
10299;SDS011;5195;48.562;9.192;2024-01-15T06:03:58;15.93;;;10.27;;
10299;SDS011;5195;48.562;9.192;2024-01-15T06:06:33;14.73;;;11.70;;
10299;SDS011;5195;48.562;9.192;2024-01-15T06:09:09;16.47;;;12.53;;
10299;SDS011;5195;48.562;9.192;2024-01-15T06:11:45;16.10;;;12.73;;
10299;SDS011;5195;48.562;9.192;2024-01-15T06:14:21;12.47;;;9.67;;
10299;SDS011;5195;48.562;9.192;2024-01-15T06:16:57;15.93;;;12.60;;
10299;SDS011;5195;48.562;9.192;2024-01-15T06:19:32;14.93;;;12.57;;
10299;SDS011;5195;48.562;9.192;2024-01-15T06:22:08;16.80;;;13.37;;
10299;SDS011;5195;48.562;9.192;2024-01-15T06:24:43;16.17;;;12.85;;
10299;SDS011;5195;48.562;9.192;2024-01-15T06:27:19;15.50;;;12.60;;
10299;SDS011;5195;48.562;9.192;2024-01-15T06:29:56;13.90;;;9.97;;
10299;SDS011;5195;48.562;9.192;2024-01-15T06:32:31;11.97;;;8.90;;
10299;SDS011;5195;48.562;9.192;2024-01-15T06:35:07;12.00;;;8.80;;
10299;SDS011;5195;48.562;9.192;2024-01-15T06:37:43;14.67;;;12.23;;
10299;SDS011;5195;48.562;9.192;2024-01-15T06:40:18;15.67;;;10.37;;
10299;SDS011;5195;48.562;9.192;2024-01-15T06:42:54;15.10;;;9.30;;
10299;SDS011;5195;48.562;9.192;2024-01-15T06:45:29;16.60;;;13.10;;
10299;SDS011;5195;48.562;9.192;2024-01-15T06:48:05;15.67;;;12.53;;
10299;SDS011;5195;48.562;9.192;2024-01-15T06:50:41;15.43;;;10.90;;
10299;SDS011;5195;48.562;9.192;2024-01-15T06:53:16;14.50;;;9.23;;
10299;SDS011;5195;48.562;9.192;2024-01-15T06:55:53;11.73;;;8.87;;
10299;SDS011;5195;48.562;9.192;2024-01-15T06:58:30;13.13;;;8.90;;
10299;SDS011;5195;48.562;9.192;2024-01-15T07:01:04;16.13;;;12.53;;
10299;SDS011;5195;48.562;9.192;2024-01-15T07:03:39;14.90;;;12.43;;
10299;SDS011;5195;48.562;9.192;2024-01-15T07:06:15;14.23;;;9.83;;
10299;SDS011;5195;48.562;9.192;2024-01-15T07:08:51;14.87;;;9.77;;
10299;SDS011;5195;48.562;9.192;2024-01-15T07:11:27;16.00;;;12.60;;
10299;SDS011;5195;48.562;9.192;2024-01-15T07:14:03;14.97;;;12.47;;
10299;SDS011;5195;48.562;9.192;2024-01-15T07:16:39;15.73;;;12.65;;
10299;SDS011;5195;48.562;9.192;2024-01-15T07:19:16;13.33;;;9.27;;
10299;SDS011;5195;48.562;9.192;2024-01-15T07:21:51;16.17;;;12.63;;
10299;SDS011;5195;48.562;9.192;2024-01-15T07:24:27;14.17;;;9.80;;
10299;SDS011;5195;48.562;9.192;2024-01-15T07:27:03;11.80;;;8.83;;
10299;SDS011;5195;48.562;9.192;2024-01-15T07:29:39;14.53;;;11.97;;
10299;SDS011;5195;48.562;9.192;2024-01-15T07:32:16;12.33;;;9.33;;
10299;SDS011;5195;48.562;9.192;2024-01-15T07:34:51;15.20;;;12.05;;
10299;SDS011;5195;48.562;9.192;2024-01-15T07:37:28;12.93;;;8.87;;
10299;SDS011;5195;48.562;9.192;2024-01-15T07:40:03;10.77;;;8.13;;
10299;SDS011;5195;48.562;9.192;2024-01-15T07:42:39;16.97;;;14.43;;
10299;SDS011;5195;48.562;9.192;2024-01-15T07:45:15;12.70;;;10.77;;
10299;SDS011;5195;48.562;9.192;2024-01-15T07:47:51;11.43;;;9.27;;
10299;SDS011;5195;48.562;9.192;2024-01-15T07:50:27;16.10;;;12.65;;
10299;SDS011;5195;48.562;9.192;2024-01-15T07:53:02;15.68;;;12.63;;
10299;SDS011;5195;48.562;9.192;2024-01-15T07:55:38;28.93;;;19.60;;
10299;SDS011;5195;48.562;9.192;2024-01-15T07:58:13;12.37;;;8.87;;
10299;SDS011;5195;48.562;9.192;2024-01-15T08:00:49;17.30;;;14.17;;
10299;SDS011;5195;48.562;9.192;2024-01-15T08:03:25;18.70;;;15.57;;
10299;SDS011;5195;48.562;9.192;2024-01-15T08:06:00;20.07;;;14.40;;
10299;SDS011;5195;48.562;9.192;2024-01-15T08:08:36;16.47;;;14.47;;
10299;SDS011;5195;48.562;9.192;2024-01-15T08:11:11;17.23;;;13.23;;
10299;SDS011;5195;48.562;9.192;2024-01-15T08:13:47;21.47;;;15.30;;
10299;SDS011;5195;48.562;9.192;2024-01-15T08:16:23;22.43;;;18.83;;
10299;SDS011;5195;48.562;9.192;2024-01-15T08:18:58;26.67;;;18.63;;
10299;SDS011;5195;48.562;9.192;2024-01-15T08:21:34;23.93;;;17.17;;
10299;SDS011;5195;48.562;9.192;2024-01-15T08:24:09;11.03;;;8.63;;
10299;SDS011;5195;48.562;9.192;2024-01-15T08:26:46;13.77;;;10.90;;
10299;SDS011;5195;48.562;9.192;2024-01-15T08:29:21;12.43;;;11.10;;
10299;SDS011;5195;48.562;9.192;2024-01-15T08:31:57;11.70;;;10.50;;
10299;SDS011;5195;48.562;9.192;2024-01-15T08:34:32;11.43;;;10.03;;
10299;SDS011;5195;48.562;9.192;2024-01-15T08:37:08;11.10;;;9.50;;
10299;SDS011;5195;48.562;9.192;2024-01-15T08:39:43;9.20;;;7.30;;
10299;SDS011;5195;48.562;9.192;2024-01-15T08:42:19;11.07;;;7.50;;
10299;SDS011;5195;48.562;9.192;2024-01-15T08:44:55;9.57;;;8.63;;
10299;SDS011;5195;48.562;9.192;2024-01-15T08:47:31;10.47;;;9.40;;
10299;SDS011;5195;48.562;9.192;2024-01-15T08:50:07;8.20;;;6.93;;
10299;SDS011;5195;48.562;9.192;2024-01-15T08:52:42;9.43;;;8.40;;
10299;SDS011;5195;48.562;9.192;2024-01-15T08:55:18;8.33;;;6.83;;
10299;SDS011;5195;48.562;9.192;2024-01-15T08:57:53;6.57;;;5.53;;
10299;SDS011;5195;48.562;9.192;2024-01-15T09:00:29;7.90;;;6.37;;
10299;SDS011;5195;48.562;9.192;2024-01-15T09:03:07;9.57;;;8.63;;
10299;SDS011;5195;48.562;9.192;2024-01-15T09:05:45;7.77;;;6.43;;
10299;SDS011;5195;48.562;9.192;2024-01-15T09:08:22;8.03;;;7.10;;
10299;SDS011;5195;48.562;9.192;2024-01-15T09:10:57;6.60;;;5.33;;
10299;SDS011;5195;48.562;9.192;2024-01-15T09:13:34;7.63;;;5.57;;
10299;SDS011;5195;48.562;9.192;2024-01-15T09:16:11;8.35;;;7.50;;
10299;SDS011;5195;48.562;9.192;2024-01-15T09:18:46;5.57;;;5.07;;
10299;SDS011;5195;48.562;9.192;2024-01-15T09:21:22;5.53;;;5.07;;
10299;SDS011;5195;48.562;9.192;2024-01-15T09:23:58;6.40;;;5.27;;
10299;SDS011;5195;48.562;9.192;2024-01-15T09:26:34;4.77;;;4.30;;
10299;SDS011;5195;48.562;9.192;2024-01-15T09:29:09;7.07;;;6.37;;
10299;SDS011;5195;48.562;9.192;2024-01-15T09:31:45;6.30;;;5.70;;
10299;SDS011;5195;48.562;9.192;2024-01-15T09:34:20;5.97;;;5.43;;
10299;SDS011;5195;48.562;9.192;2024-01-15T09:36:58;6.82;;;6.12;;
10299;SDS011;5195;48.562;9.192;2024-01-15T09:39:33;5.67;;;5.17;;
10299;SDS011;5195;48.562;9.192;2024-01-15T09:42:09;6.97;;;6.20;;
10299;SDS011;5195;48.562;9.192;2024-01-15T09:44:45;5.03;;;4.53;;
10299;SDS011;5195;48.562;9.192;2024-01-15T09:47:21;5.57;;;5.07;;
10299;SDS011;5195;48.562;9.192;2024-01-15T09:49:56;4.97;;;4.03;;
10299;SDS011;5195;48.562;9.192;2024-01-15T09:52:34;6.45;;;5.03;;
10299;SDS011;5195;48.562;9.192;2024-01-15T09:55:09;5.67;;;4.57;;
10299;SDS011;5195;48.562;9.192;2024-01-15T09:57:45;7.00;;;5.30;;
10299;SDS011;5195;48.562;9.192;2024-01-15T10:00:24;8.47;;;7.57;;
10299;SDS011;5195;48.562;9.192;2024-01-15T10:02:59;12.33;;;9.37;;
10299;SDS011;5195;48.562;9.192;2024-01-15T10:05:35;10.40;;;7.87;;
10299;SDS011;5195;48.562;9.192;2024-01-15T10:08:10;6.97;;;6.37;;
10299;SDS011;5195;48.562;9.192;2024-01-15T10:10:46;8.87;;;7.80;;
10299;SDS011;5195;48.562;9.192;2024-01-15T10:13:21;6.30;;;5.70;;
10299;SDS011;5195;48.562;9.192;2024-01-15T10:15:57;6.40;;;5.77;;
10299;SDS011;5195;48.562;9.192;2024-01-15T10:18:33;8.55;;;7.65;;
10299;SDS011;5195;48.562;9.192;2024-01-15T10:21:08;5.40;;;4.93;;
10299;SDS011;5195;48.562;9.192;2024-01-15T10:23:44;6.57;;;5.83;;
10299;SDS011;5195;48.562;9.192;2024-01-15T10:26:24;6.10;;;5.50;;
10299;SDS011;5195;48.562;9.192;2024-01-15T10:28:57;5.43;;;5.00;;
10299;SDS011;5195;48.562;9.192;2024-01-15T10:31:32;5.33;;;4.80;;
10299;SDS011;5195;48.562;9.192;2024-01-15T10:34:11;10.50;;;5.97;;
10299;SDS011;5195;48.562;9.192;2024-01-15T10:36:46;7.53;;;6.17;;
10299;SDS011;5195;48.562;9.192;2024-01-15T10:39:22;6.80;;;5.67;;
10299;SDS011;5195;48.562;9.192;2024-01-15T10:41:58;5.67;;;4.70;;
10299;SDS011;5195;48.562;9.192;2024-01-15T10:44:34;6.75;;;5.60;;
10299;SDS011;5195;48.562;9.192;2024-01-15T10:47:09;4.43;;;4.03;;
10299;SDS011;5195;48.562;9.192;2024-01-15T10:49:45;7.62;;;6.70;;
10299;SDS011;5195;48.562;9.192;2024-01-15T10:52:21;8.37;;;5.40;;
10299;SDS011;5195;48.562;9.192;2024-01-15T10:54:57;5.73;;;5.00;;
10299;SDS011;5195;48.562;9.192;2024-01-15T10:57:33;5.33;;;4.60;;
10299;SDS011;5195;48.562;9.192;2024-01-15T11:00:11;9.77;;;8.23;;
10299;SDS011;5195;48.562;9.192;2024-01-15T11:02:46;16.83;;;14.40;;
10299;SDS011;5195;48.562;9.192;2024-01-15T11:05:22;8.00;;;7.25;;
10299;SDS011;5195;48.562;9.192;2024-01-15T11:07:58;7.22;;;5.87;;
10299;SDS011;5195;48.562;9.192;2024-01-15T11:10:44;3.60;;;3.30;;
10299;SDS011;5195;48.562;9.192;2024-01-15T11:13:40;5.50;;;5.00;;
10299;SDS011;5195;48.562;9.192;2024-01-15T11:16:10;3.80;;;3.20;;
10299;SDS011;5195;48.562;9.192;2024-01-15T11:21:33;4.53;;;4.23;;
10299;SDS011;5195;48.562;9.192;2024-01-15T11:24:09;4.30;;;3.97;;
10299;SDS011;5195;48.562;9.192;2024-01-15T11:26:46;5.30;;;4.90;;
10299;SDS011;5195;48.562;9.192;2024-01-15T11:32:06;2.70;;;2.60;;
10299;SDS011;5195;48.562;9.192;2024-01-15T11:37:26;4.27;;;3.60;;
10299;SDS011;5195;48.562;9.192;2024-01-15T11:40:01;3.70;;;3.40;;
10299;SDS011;5195;48.562;9.192;2024-01-15T11:42:37;4.03;;;3.17;;
10299;SDS011;5195;48.562;9.192;2024-01-15T11:45:13;4.63;;;4.23;;
10299;SDS011;5195;48.562;9.192;2024-01-15T11:48:15;5.03;;;4.63;;
10299;SDS011;5195;48.562;9.192;2024-01-15T11:50:51;4.82;;;4.43;;
10299;SDS011;5195;48.562;9.192;2024-01-15T11:53:30;4.00;;;3.70;;
10299;SDS011;5195;48.562;9.192;2024-01-15T11:56:14;5.17;;;4.73;;
10299;SDS011;5195;48.562;9.192;2024-01-15T11:58:47;4.17;;;3.87;;
10299;SDS011;5195;48.562;9.192;2024-01-15T12:01:23;8.47;;;7.77;;
10299;SDS011;5195;48.562;9.192;2024-01-15T12:03:59;9.40;;;8.60;;
10299;SDS011;5195;48.562;9.192;2024-01-15T12:06:37;5.33;;;4.90;;
10299;SDS011;5195;48.562;9.192;2024-01-15T12:09:12;5.17;;;4.43;;
10299;SDS011;5195;48.562;9.192;2024-01-15T12:11:50;5.90;;;5.30;;
10299;SDS011;5195;48.562;9.192;2024-01-15T12:14:23;4.73;;;4.33;;
10299;SDS011;5195;48.562;9.192;2024-01-15T12:17:00;6.20;;;5.60;;
10299;SDS011;5195;48.562;9.192;2024-01-15T12:19:36;6.97;;;6.30;;
10299;SDS011;5195;48.562;9.192;2024-01-15T12:22:11;4.93;;;4.53;;
10299;SDS011;5195;48.562;9.192;2024-01-15T12:24:47;5.77;;;4.90;;
10299;SDS011;5195;48.562;9.192;2024-01-15T12:27:22;5.90;;;5.40;;
10299;SDS011;5195;48.562;9.192;2024-01-15T12:29:58;7.93;;;7.23;;
10299;SDS011;5195;48.562;9.192;2024-01-15T12:32:34;7.23;;;6.50;;
10299;SDS011;5195;48.562;9.192;2024-01-15T12:35:09;21.40;;;15.70;;
10299;SDS011;5195;48.562;9.192;2024-01-15T12:37:45;19.30;;;14.17;;
10299;SDS011;5195;48.562;9.192;2024-01-15T12:40:24;8.37;;;6.80;;
10299;SDS011;5195;48.562;9.192;2024-01-15T12:42:59;5.27;;;4.77;;
10299;SDS011;5195;48.562;9.192;2024-01-15T12:45:36;5.53;;;5.03;;
10299;SDS011;5195;48.562;9.192;2024-01-15T12:48:11;6.13;;;5.20;;
10299;SDS011;5195;48.562;9.192;2024-01-15T12:50:48;8.63;;;7.83;;
10299;SDS011;5195;48.562;9.192;2024-01-15T12:53:23;6.55;;;5.95;;
10299;SDS011;5195;48.562;9.192;2024-01-15T12:55:59;6.40;;;5.17;;
10299;SDS011;5195;48.562;9.192;2024-01-15T12:58:34;7.63;;;6.27;;
10299;SDS011;5195;48.562;9.192;2024-01-15T13:01:10;6.67;;;6.10;;
10299;SDS011;5195;48.562;9.192;2024-01-15T13:03:45;5.87;;;5.27;;
10299;SDS011;5195;48.562;9.192;2024-01-15T13:06:21;12.40;;;10.37;;
10299;SDS011;5195;48.562;9.192;2024-01-15T13:08:57;26.00;;;16.07;;
10299;SDS011;5195;48.562;9.192;2024-01-15T13:11:32;14.33;;;11.53;;
10299;SDS011;5195;48.562;9.192;2024-01-15T13:14:08;31.70;;;24.40;;
10299;SDS011;5195;48.562;9.192;2024-01-15T13:16:43;20.40;;;13.53;;
10299;SDS011;5195;48.562;9.192;2024-01-15T13:19:21;9.73;;;8.80;;
10299;SDS011;5195;48.562;9.192;2024-01-15T13:21:58;24.87;;;19.10;;
10299;SDS011;5195;48.562;9.192;2024-01-15T13:24:32;17.02;;;15.32;;
10299;SDS011;5195;48.562;9.192;2024-01-15T13:27:08;10.80;;;9.00;;
10299;SDS011;5195;48.562;9.192;2024-01-15T13:29:44;8.17;;;7.03;;
10299;SDS011;5195;48.562;9.192;2024-01-15T13:32:23;10.20;;;8.40;;
10299;SDS011;5195;48.562;9.192;2024-01-15T13:34:58;9.47;;;8.53;;
10299;SDS011;5195;48.562;9.192;2024-01-15T13:37:34;10.30;;;9.40;;
10299;SDS011;5195;48.562;9.192;2024-01-15T13:40:10;7.47;;;6.77;;
10299;SDS011;5195;48.562;9.192;2024-01-15T13:42:46;11.40;;;9.97;;
10299;SDS011;5195;48.562;9.192;2024-01-15T13:45:21;17.40;;;15.63;;
10299;SDS011;5195;48.562;9.192;2024-01-15T13:47:57;14.10;;;12.60;;
10299;SDS011;5195;48.562;9.192;2024-01-15T13:50:33;14.80;;;12.13;;
10299;SDS011;5195;48.562;9.192;2024-01-15T13:53:08;8.63;;;7.80;;
10299;SDS011;5195;48.562;9.192;2024-01-15T13:55:44;14.30;;;11.30;;
10299;SDS011;5195;48.562;9.192;2024-01-15T13:58:19;9.37;;;8.27;;
10299;SDS011;5195;48.562;9.192;2024-01-15T14:00:55;15.48;;;13.95;;
10299;SDS011;5195;48.562;9.192;2024-01-15T14:03:31;12.37;;;11.13;;
10299;SDS011;5195;48.562;9.192;2024-01-15T14:06:06;15.70;;;14.10;;
10299;SDS011;5195;48.562;9.192;2024-01-15T14:08:42;17.87;;;15.63;;
10299;SDS011;5195;48.562;9.192;2024-01-15T14:11:17;9.67;;;8.63;;
10299;SDS011;5195;48.562;9.192;2024-01-15T14:13:55;13.03;;;11.73;;
10299;SDS011;5195;48.562;9.192;2024-01-15T14:16:31;11.10;;;10.00;;
10299;SDS011;5195;48.562;9.192;2024-01-15T14:19:07;10.17;;;8.53;;
10299;SDS011;5195;48.562;9.192;2024-01-15T14:21:42;9.53;;;8.43;;
10299;SDS011;5195;48.562;9.192;2024-01-15T14:24:18;8.87;;;7.97;;
10299;SDS011;5195;48.562;9.192;2024-01-15T14:26:56;7.47;;;6.57;;
10299;SDS011;5195;48.562;9.192;2024-01-15T14:29:31;9.13;;;7.20;;
10299;SDS011;5195;48.562;9.192;2024-01-15T14:32:09;8.67;;;7.33;;
10299;SDS011;5195;48.562;9.192;2024-01-15T14:34:45;8.03;;;5.83;;
10299;SDS011;5195;48.562;9.192;2024-01-15T14:37:22;13.97;;;9.17;;
10299;SDS011;5195;48.562;9.192;2024-01-15T14:39:58;15.80;;;12.00;;
10299;SDS011;5195;48.562;9.192;2024-01-15T14:42:33;9.83;;;8.83;;
10299;SDS011;5195;48.562;9.192;2024-01-15T14:45:09;12.13;;;10.17;;
10299;SDS011;5195;48.562;9.192;2024-01-15T14:47:46;11.77;;;10.45;;
10299;SDS011;5195;48.562;9.192;2024-01-15T14:50:23;7.93;;;7.13;;
10299;SDS011;5195;48.562;9.192;2024-01-15T14:52:59;11.48;;;10.23;;
10299;SDS011;5195;48.562;9.192;2024-01-15T14:55:35;9.27;;;7.87;;
10299;SDS011;5195;48.562;9.192;2024-01-15T14:58:11;9.38;;;8.48;;
10299;SDS011;5195;48.562;9.192;2024-01-15T15:00:46;9.55;;;8.65;;
10299;SDS011;5195;48.562;9.192;2024-01-15T15:03:23;6.70;;;5.73;;
10299;SDS011;5195;48.562;9.192;2024-01-15T15:05:59;9.90;;;8.90;;
10299;SDS011;5195;48.562;9.192;2024-01-15T15:08:34;8.47;;;6.40;;
10299;SDS011;5195;48.562;9.192;2024-01-15T15:11:10;6.03;;;5.33;;
10299;SDS011;5195;48.562;9.192;2024-01-15T15:13:45;9.20;;;6.07;;
10299;SDS011;5195;48.562;9.192;2024-01-15T15:16:21;6.17;;;5.67;;
10299;SDS011;5195;48.562;9.192;2024-01-15T15:18:57;7.20;;;6.60;;
10299;SDS011;5195;48.562;9.192;2024-01-15T15:21:33;6.65;;;6.05;;
10299;SDS011;5195;48.562;9.192;2024-01-15T15:24:09;7.03;;;6.53;;
10299;SDS011;5195;48.562;9.192;2024-01-15T15:26:45;5.50;;;5.10;;
10299;SDS011;5195;48.562;9.192;2024-01-15T15:29:20;5.10;;;4.60;;
10299;SDS011;5195;48.562;9.192;2024-01-15T15:31:58;5.97;;;5.57;;
10299;SDS011;5195;48.562;9.192;2024-01-15T15:34:34;5.90;;;5.50;;
10299;SDS011;5195;48.562;9.192;2024-01-15T15:37:09;4.63;;;4.30;;
10299;SDS011;5195;48.562;9.192;2024-01-15T15:39:45;4.57;;;4.27;;
10299;SDS011;5195;48.562;9.192;2024-01-15T15:42:20;5.13;;;4.80;;
10299;SDS011;5195;48.562;9.192;2024-01-15T15:44:56;3.87;;;3.57;;
10299;SDS011;5195;48.562;9.192;2024-01-15T15:47:32;3.80;;;3.50;;